Millville, NJ

10:45 AM EDT on September 23, 2014 (GMT -0400)
Atlantic City International | Change Station
CLOSE
Current Station
Airport
Location: Atlantic City,
Elevation: 66 ft
Nearby Weather Stations

Elev 66 ft 39.45 °N, 74.57 °W | Updated 51 minutes ago

Clear
Clear
57 °F
Feels Like 57 °F
N
5
Wind Variable Wind from North

Today
High -- | Low -- °F
--% Chance of Precip.
Yesterday
High -- | Low -- °F
Precip. -- in
6:48 AM 6:55 PM
Waning Crescent, 0% visible
Pressure 30.32 in
Visibility 10.0 miles
Clouds Clear
Dew Point 44 °F
Humidity 62%
Rainfall 0.00 in
Snow Depth Not available.
UV 4 out of 12
Pollen 3.90 out of 12
Ozone Good
PM2.5 Good
Flu Activity Not available.
METAR KACY 231354Z AUTO 01004KT 10SM CLR 14/07 A3033 RMK AO2 SLP268 T01390067 TSNO

More Conditions Fewer Conditions

Pressure 30.32 in
Visibility 10.0 miles
Clouds Clear
Dew Point 44 °F
Humidity 62%
Rainfall 0.00 in
Snow Depth Not available.
UV 4 out of 12
Pollen 3.90 out of 12
Ozone Good
PM2.5 Good
Flu Activity Not available.
METAR KACY 231354Z AUTO 01004KT 10SM CLR 14/07 A3033 RMK AO2 SLP268 T01390067 TSNO

More Conditions Fewer Conditions

10-Day Weather Forecast

Almanac

Astronomy

Sep. 23, 2014 Rise Set
Actual Time 6:48 AM EDT 6:55 PM EDT
Civil Twilight 6:21 AM EDT 7:22 PM EDT
Nautical Twilight 5:50 AM EDT 7:53 PM EDT
Astronomical Twilight 5:18 AM EDT 8:25 PM EDT
Moon 6:10 AM EDT 6:33 PM EDT
Length of Visible Light 13h 00m
Length of Day
12h 06m
Tomorrow will be 2m 34s shorter.
Waning Crescent, 0% of the Moon is Illuminated
Today
Waning Crescent
Sep 24
New
Oct 1
First Quarter
Oct 8
Full
Oct 15
Last Quarter

Today's Extremes

State Highs State Lows

Community

WunderPhotos

Upload Photos

1,755,711 photos uploaded!

Nearby

Air Quality

  Air Quality AQ Index Pollutant
Yesterday Good
OZONE
Yesterday Good
PM2.5
Current Good
PM2.5
Current Good
OZONE
Tuesday Good
PM2.5
Tuesday Good
OZONE
Wednesday Good
PM2.5
Wednesday Good
OZONE

Snow Depth

Station Depth Elevation
No new snow has been reported.

Earthquake Activity

City Distance Mag. Time & Date
No recent earthquake activity has been reported nearby.
Minimum magnitude displayed is 2.5.

Coastal Water Temperatures

Place Temperature
Cape May, NJ 73.0 °F
Lewes, DE 68.0 °F
Ship John Shoal, NJ 71.1 °F

Nearby Weather Stations